Mystic Lady — WDE4676 — position and weather

sailwx.info

Track history (hours):
 
Tides and Currents Weather Stations Pressure Air Temp Water Temp Dewpoint Dewpoint Depression Visibility Wind Speed Wind Dir Waves Ship Positions

Mystic Lady

Owner: babich fisheries, llc, gig harbor, WA. More information available from US FCC via Universal Licensing System and Coast Guard Vessel Documentation Center.

Last reported at 2018-Jun-12 18:54 UTC. Time now 2018-Jul-23 04:07 UTC.
Position N 54°20' W 130°34'.
Warning: this ship's position is 40 days out of date.

Type: Fishing. MMSI: 367356320.

Date/timePositionNaut miles runAvg speedWind from/ knotsBaromVisibWave heightAir tempDewpointWater temp
2018-Jun-12 18:54N 54°20' W 130°34'3 7.5
2018-Jun-12 18:29N 54°17' W 130°31'4 8.1
2018-Jun-12 18:00N 54°14' W 130°27'4 9.0
2018-Jun-12 17:30N 54°10' W 130°23'4 8.3
2018-Jun-12 17:00N 54°07' W 130°19'4 8.7
2018-Jun-12 16:30N 54°03' W 130°15'5 9.1
2018-Jun-12 16:00N 53°59' W 130°13'4 8.3
2018-Jun-12 15:30N 53°55' W 130°10'4 7.7
2018-Jun-12 15:00N 53°53' W 130°05'127 6.8
2018-Jun-11 20:19N 52°07' W 128°08'3 7.3
2018-Jun-11 19:54N 52°05' W 128°05'7 6.6
2018-Jun-11 18:49N 52°00' W 127°56'2 7.5
2018-Jun-11 18:30N 51°58' W 127°55'4 7.6
2018-Jun-11 17:59N 51°54' W 127°55'4 7.7
2018-Jun-11 17:30N 51°50' W 127°55'4 7.5
2018-Jun-11 17:00N 51°47' W 127°55'4 7.5
2018-Jun-11 16:30N 51°43' W 127°54'4 7.8
2018-Jun-11 16:00N 51°39' W 127°54'4 7.9
2018-Jun-11 15:30N 51°35' W 127°53'33 7.6
2018-Jun-11 11:08N 51°03' W 127°40'1 9.1
2018-Jun-11 10:59N 51°02' W 127°39'4 8.8
2018-Jun-11 10:30N 50°59' W 127°34'4 8.4
2018-Jun-11 10:00N 50°56' W 127°30'5 8.9
2018-Jun-11 09:29N 50°52' W 127°24'4 8.2
2018-Jun-11 08:59N 50°49' W 127°20'83 7.7
2018-Jun-10 22:07N 50°13' W 125°22'2 8.0
2018-Jun-10 21:50N 50°11' W 125°21'3 6.5
2018-Jun-10 21:26N 50°09' W 125°21'1 3.0
2018-Jun-10 21:00N 50°08' W 125°20'4 6.9
2018-Jun-10 20:27N 50°05' W 125°15'3 6.6
2018-Jun-10 20:00N 50°02' W 125°13'2 3.1
2018-Jun-10 19:30N 50°01' W 125°13'1 2.5
2018-Jun-10 19:00N 49°60' W 125°12'4 7.8
2018-Jun-10 18:29N 49°57' W 125°08'4 8.0
2018-Jun-10 17:58N 49°54' W 125°03'7 8.1
2018-Jun-10 17:03N 49°49' W 124°55'2 7.1
2018-Jun-10 16:42N 49°47' W 124°53'2 6.8
2018-Jun-10 16:25N 49°45' W 124°51'3 6.9
2018-Jun-10 15:59N 49°43' W 124°48'103 7.2
2018-Jun-10 01:44N 48°40' W 122°44'2 6.9
2018-Jun-10 01:29N 48°38' W 122°44'3 6.8
2018-Jun-10 00:59N 48°34' W 122°45'3 6.9
2018-Jun-10 00:30N 48°31' W 122°45'48 7.0
2018-Jun-09 17:33N 47°44' W 122°26'1 6.3
2018-Jun-09 17:26N 47°44' W 122°26'3 7.3
2018-Jun-09 17:00N 47°41' W 122°25'1 2.0
2018-Jun-09 16:28N 47°40' W 122°24'0 0.5
2018-Jun-09 15:58N 47°40' W 122°23'1 1.2
2018-Jun-09 15:30N 47°40' W 122°23'0 0.3
2018-Jun-09 14:30N 47°39' W 122°23'0 0.0
2018-Jun-09 14:00N 47°39' W 122°23'0 0.0
2018-Jun-09 13:30N 47°39' W 122°23'0 0.0
2018-Jun-09 13:00N 47°39' W 122°23'0 0.1
2018-Jun-09 12:30N 47°39' W 122°23'0 0.1
2018-Jun-09 12:00N 47°39' W 122°23'0 0.0
2018-Jun-09 11:30N 47°39' W 122°23'0 0.0
2018-Jun-09 11:00N 47°39' W 122°23'0 0.0
2018-Jun-09 10:30N 47°39' W 122°23'0 0.3
2018-Jun-09 09:59N 47°39' W 122°23'0 0.0
2018-Jun-09 09:29N 47°39' W 122°23'0 0.0
2018-Jun-09 08:59N 47°39' W 122°23'0 0.0
2018-Jun-09 08:29N 47°39' W 122°23'0 0.0
2018-Jun-09 07:59N 47°39' W 122°23'0 0.0
2018-Jun-09 07:29N 47°39' W 122°23'0 0.0
2018-Jun-09 06:59N 47°39' W 122°23'0 0.0
2018-Jun-09 06:29N 47°39' W 122°23'0 0.0
2018-Jun-09 05:59N 47°39' W 122°23'0 0.0
2018-Jun-09 05:29N 47°39' W 122°23'0 0.0
2018-Jun-09 04:59N 47°39' W 122°23'0 0.0
2018-Jun-09 04:29N 47°39' W 122°23'0 0.2
2018-Jun-09 03:58N 47°39' W 122°23'0 0.0
2018-Jun-09 03:28N 47°39' W 122°23'0 0.0
2018-Jun-09 02:58N 47°39' W 122°23'0 0.0
2018-Jun-09 02:28N 47°39' W 122°23'0 0.0
2018-Jun-09 01:58N 47°39' W 122°23'0 0.0
2018-Jun-09 01:28N 47°39' W 122°23'0 0.0
2018-Jun-09 00:58N 47°39' W 122°23'0 0.0
2018-Jun-09 00:28N 47°39' W 122°23'0 0.0
2018-Jun-08 23:58N 47°39' W 122°23'0 0.0
2018-Jun-08 23:25N 47°39' W 122°23'0 0.0
2018-Jun-08 22:58N 47°39' W 122°23'0 0.0
2018-Jun-08 22:28N 47°39' W 122°23'0 0.0
2018-Jun-08 21:58N 47°39' W 122°23'0 0.0
2018-Jun-08 21:28N 47°39' W 122°23'0 0.0
2018-Jun-08 20:55N 47°39' W 122°23'0 0.0
2018-Jun-08 20:28N 47°39' W 122°23'0 0.1
2018-Jun-08 19:58N 47°39' W 122°23'0 0.1
2018-Jun-08 19:28N 47°39' W 122°23'0 0.0
2018-Jun-08 18:58N 47°39' W 122°23'0 0.0
2018-Jun-08 18:28N 47°39' W 122°23'0 0.0
2018-Jun-08 17:58N 47°39' W 122°23'0 0.0
2018-Jun-08 17:28N 47°39' W 122°23'0 0.0
2018-Jun-08 16:58N 47°39' W 122°23'0 0.0
2018-Jun-08 16:28N 47°39' W 122°23'0 0.1
2018-Jun-08 15:52N 47°39' W 122°23'0 0.1
2018-Jun-08 15:28N 47°39' W 122°23'0 0.1
2018-Jun-08 14:58N 47°39' W 122°23'0 0.1
2018-Jun-08 14:28N 47°39' W 122°23'0 0.0
2018-Jun-08 13:58N 47°39' W 122°23'0 0.0
2018-Jun-08 13:28N 47°39' W 122°23'0 0.0
2018-Jun-08 12:58N 47°39' W 122°23'0 0.1
2018-Jun-08 12:28N 47°39' W 122°23'0 0.1
2018-Jun-08 11:58N 47°39' W 122°23'0 0.0
2018-Jun-08 11:28N 47°39' W 122°23'0 0.0
2018-Jun-08 10:58N 47°39' W 122°23'0 0.0
2018-Jun-08 10:28N 47°39' W 122°23'0 0.0
2018-Jun-08 09:58N 47°39' W 122°23'0 0.0
2018-Jun-08 09:28N 47°39' W 122°23'0 0.1
2018-Jun-08 08:58N 47°39' W 122°23'0 0.1
2018-Jun-08 08:28N 47°39' W 122°23'0 0.1
2018-Jun-08 07:55N 47°39' W 122°23'0 0.1
2018-Jun-08 07:28N 47°39' W 122°23'0 0.0
2018-Jun-08 06:58N 47°39' W 122°23'0 0.0
2018-Jun-08 06:28N 47°39' W 122°23'0 0.0
2018-Jun-08 05:58N 47°39' W 122°23'0 0.0
2018-Jun-08 05:28N 47°39' W 122°23'0 0.0
2018-Jun-08 04:55N 47°39' W 122°23'0 0.1
2018-Jun-08 04:25N 47°39' W 122°23'0 0.1
2018-Jun-08 03:58N 47°39' W 122°23'0 0.0
2018-Jun-08 03:28N 47°39' W 122°23'0 0.0
2018-Jun-08 02:58N 47°39' W 122°23'0 0.0
2018-Jun-08 02:28N 47°39' W 122°23'0 0.0
2018-Jun-08 01:58N 47°39' W 122°23'0 0.0
2018-Jun-08 01:25N 47°39' W 122°23'0 0.0
2018-Jun-08 00:58N 47°39' W 122°23'0 0.0
2018-Jun-08 00:28N 47°39' W 122°23'0 0.0
2018-Jun-07 23:58N 47°39' W 122°23'0 0.0
2018-Jun-07 23:28N 47°39' W 122°23'0 0.0
2018-Jun-07 22:58N 47°39' W 122°23'0 0.0
2018-Jun-07 22:28N 47°39' W 122°23'0 0.0
2018-Jun-07 21:58N 47°39' W 122°23'0 0.0
2018-Jun-07 21:28N 47°39' W 122°23'0 0.0
2018-Jun-07 20:58N 47°39' W 122°23'0 0.0
2018-Jun-07 20:28N 47°39' W 122°23'0 0.0
2018-Jun-07 19:58N 47°39' W 122°23'0 0.0
2018-Jun-07 19:28N 47°39' W 122°23'0 0.0
2018-Jun-07 18:58N 47°39' W 122°23'0 0.0
2018-Jun-07 18:28N 47°39' W 122°23'0 0.0
2018-Jun-07 17:58N 47°39' W 122°23'0 0.0
2018-Jun-07 17:28N 47°39' W 122°23'0 0.0
2018-Jun-07 16:58N 47°39' W 122°23'0 0.0
2018-Jun-07 16:28N 47°39' W 122°23'0 0.0
2018-Jun-07 15:58N 47°39' W 122°23'0 0.1
2018-Jun-07 15:28N 47°39' W 122°23'0 0.1
2018-Jun-07 14:58N 47°39' W 122°23'0 0.0
2018-Jun-07 14:28N 47°39' W 122°23'0 0.0
2018-Jun-07 13:58N 47°39' W 122°23'0 0.0
2018-Jun-07 13:28N 47°39' W 122°23'0 0.0
2018-Jun-07 12:58N 47°39' W 122°23'0 0.0
2018-Jun-07 12:28N 47°39' W 122°23'0 0.1
2018-Jun-07 11:58N 47°39' W 122°23'0 0.1
2018-Jun-07 11:28N 47°39' W 122°23'0 0.0
2018-Jun-07 10:58N 47°39' W 122°23'0 0.0
2018-Jun-07 10:28N 47°39' W 122°23'0 0.0
2018-Jun-07 09:58N 47°39' W 122°23'0 0.1
2018-Jun-07 09:28N 47°39' W 122°23'0 0.1
2018-Jun-07 08:58N 47°39' W 122°23'0 0.0
2018-Jun-07 08:28N 47°39' W 122°23'0 0.0
2018-Jun-07 07:58N 47°39' W 122°23'0 0.0
2018-Jun-07 07:28N 47°39' W 122°23'0 0.0
2018-Jun-07 06:58N 47°39' W 122°23'0 0.0
2018-Jun-07 06:28N 47°39' W 122°23'0 0.0
2018-Jun-07 05:58N 47°39' W 122°23'0 0.0
2018-Jun-07 05:28N 47°39' W 122°23'0 0.0
2018-Jun-07 04:58N 47°39' W 122°23'0 0.0
2018-Jun-07 04:28N 47°39' W 122°23'0 0.1
2018-Jun-07 03:58N 47°39' W 122°23'0 0.1
2018-Jun-07 03:28N 47°39' W 122°23'0 0.0
2018-Jun-07 02:58N 47°39' W 122°23'0 0.0
2018-Jun-07 02:28N 47°39' W 122°23'0 0.0
2018-Jun-07 01:58N 47°39' W 122°23'0 0.0
2018-Jun-07 01:28N 47°39' W 122°23'0 0.0
2018-Jun-07 00:58N 47°39' W 122°23'0 0.1
2018-Jun-07 00:28N 47°39' W 122°23'0 0.1
2018-Jun-06 23:58N 47°39' W 122°23'0 0.0
2018-Jun-06 23:28N 47°39' W 122°23'0 0.0
2018-Jun-06 22:58N 47°39' W 122°23'0 0.0
2018-Jun-06 22:28N 47°39' W 122°23'0 0.0
2018-Jun-06 21:58N 47°39' W 122°23'0 0.0
2018-Jun-06 21:28N 47°39' W 122°23'0 0.1
2018-Jun-06 20:58N 47°39' W 122°23'0 0.1
2018-Jun-06 20:28N 47°39' W 122°23'0 0.1
2018-Jun-06 19:58N 47°39' W 122°23'0 0.1
2018-Jun-06 19:28N 47°39' W 122°23'0 0.0
2018-Jun-06 18:58N 47°39' W 122°23'0 0.0
2018-Jun-06 18:28N 47°39' W 122°23'0 0.0
2018-Jun-06 17:58N 47°39' W 122°23'0 0.0
2018-Jun-06 17:28N 47°39' W 122°23'0 0.0
2018-Jun-06 16:58N 47°39' W 122°23'0 0.0
2018-Jun-06 16:28N 47°39' W 122°23'0 0.0
2018-Jun-06 15:58N 47°39' W 122°23'0 0.0
2018-Jun-06 15:28N 47°39' W 122°23'0 0.0
2018-Jun-06 14:58N 47°39' W 122°23'0 0.0
2018-Jun-06 14:28N 47°39' W 122°23'0 0.0
2018-Jun-06 13:58N 47°39' W 122°23'0 0.0
2018-Jun-06 13:28N 47°39' W 122°23'0 0.0
2018-Jun-06 12:58N 47°39' W 122°23'0 0.0
2018-Jun-06 12:28N 47°39' W 122°23'0 0.0
2018-Jun-06 11:58N 47°39' W 122°23'0 0.1
2018-Jun-06 11:28N 47°39' W 122°23'0 0.1
2018-Jun-06 10:58N 47°39' W 122°23'0 0.0
2018-Jun-06 10:28N 47°39' W 122°23'0 0.0
2018-Jun-06 09:58N 47°39' W 122°23'0 0.0
2018-Jun-06 09:28N 47°39' W 122°23'0 0.0
2018-Jun-06 08:58N 47°39' W 122°23'0 0.0
2018-Jun-06 08:28N 47°39' W 122°23'0 0.0
2018-Jun-06 07:58N 47°39' W 122°23'0 0.0
2018-Jun-06 07:28N 47°39' W 122°23'0 0.0
2018-Jun-06 06:58N 47°39' W 122°23'0 0.0
2018-Jun-06 06:28N 47°39' W 122°23'0 0.0
2018-Jun-06 05:58N 47°39' W 122°23'0 0.0
2018-Jun-06 05:28N 47°39' W 122°23'0 0.0
2018-Jun-06 04:58N 47°39' W 122°23'0 0.0
2018-Jun-06 04:28N 47°39' W 122°23'0 0.0
2018-Jun-06 03:58N 47°39' W 122°23'0 0.1
2018-Jun-06 03:28N 47°39' W 122°23'0 0.1
2018-Jun-06 02:58N 47°39' W 122°23'0 0.1
2018-Jun-06 02:28N 47°39' W 122°23'0 0.0
2018-Jun-06 01:58N 47°39' W 122°23'0 0.1
2018-Jun-06 01:28N 47°39' W 122°23'0 0.0
2018-Jun-06 00:58N 47°39' W 122°23'0 0.0
2018-Jun-06 00:28N 47°39' W 122°23'0 0.0
2018-Jun-05 23:58N 47°39' W 122°23'0 0.0
2018-Jun-05 23:28N 47°39' W 122°23'0 0.0
2018-Jun-05 22:58N 47°39' W 122°23'0 0.0
2018-Jun-05 22:28N 47°39' W 122°23'0 0.0
2018-Jun-05 21:58N 47°39' W 122°23'0 0.0
2018-Jun-05 21:28N 47°39' W 122°23'0 0.0
2018-Jun-05 20:58N 47°39' W 122°23'0 0.0
2018-Jun-05 20:28N 47°39' W 122°23'0 0.0
2018-Jun-05 19:58N 47°39' W 122°23'0 0.0
2018-Jun-05 19:28N 47°39' W 122°23'0 0.0
2018-Jun-05 18:58N 47°39' W 122°23'0 0.0
2018-Jun-05 18:28N 47°39' W 122°23'0 0.1
2018-Jun-05 17:58N 47°39' W 122°23'0 0.1
2018-Jun-05 17:28N 47°39' W 122°23'0 0.0
2018-Jun-05 16:58N 47°39' W 122°23'0 0.0
2018-Jun-05 16:28N 47°39' W 122°23'0 0.0
2018-Jun-05 15:58N 47°39' W 122°23'0 0.0
2018-Jun-05 15:28N 47°39' W 122°23'0 0.0
2018-Jun-05 14:58N 47°39' W 122°23'0 0.0
2018-Jun-05 14:25N 47°39' W 122°23'0 0.0
2018-Jun-05 13:58N 47°39' W 122°23'0 0.0
2018-Jun-05 13:28N 47°39' W 122°23'0 0.0
2018-Jun-05 12:58N 47°39' W 122°23'0 0.0
2018-Jun-05 12:28N 47°39' W 122°23'0 0.0
2018-Jun-05 11:55N 47°39' W 122°23'0 0.0
2018-Jun-05 11:25N 47°39' W 122°23'0 0.0
2018-Jun-05 10:58N 47°39' W 122°23'0 0.0
2018-Jun-05 10:28N 47°39' W 122°23'0 0.0
2018-Jun-05 09:58N 47°39' W 122°23'0 0.0
2018-Jun-05 09:28N 47°39' W 122°23'0 0.1
2018-Jun-05 08:58N 47°39' W 122°23'0 0.1
2018-Jun-05 08:28N 47°39' W 122°23'0 0.0
2018-Jun-05 07:58N 47°39' W 122°23'0 0.0
2018-Jun-05 07:28N 47°39' W 122°23'0 0.0
2018-Jun-05 06:58N 47°39' W 122°23'0 0.0
2018-Jun-05 06:28N 47°39' W 122°23'0 0.0
2018-Jun-05 05:58N 47°39' W 122°23'0 0.0
2018-Jun-05 05:28N 47°39' W 122°23'0 0.1
2018-Jun-05 04:58N 47°39' W 122°23'0 0.1
2018-Jun-05 04:28N 47°39' W 122°23'0 0.0
2018-Jun-05 03:58N 47°39' W 122°23'0 0.0
2018-Jun-05 03:28N 47°39' W 122°23'0 0.0
2018-Jun-05 02:58N 47°39' W 122°23'0 0.0
2018-Jun-05 02:28N 47°39' W 122°23'0 0.0
2018-Jun-05 01:58N 47°39' W 122°23'0 0.0
2018-Jun-05 01:28N 47°39' W 122°23'0 0.0
2018-Jun-05 00:58N 47°39' W 122°23'0 0.0
2018-Jun-05 00:28N 47°39' W 122°23'0 0.0
2018-Jun-04 23:55N 47°39' W 122°23'0 0.0
2018-Jun-04 23:28N 47°39' W 122°23'0 0.0
2018-Jun-04 22:58N 47°39' W 122°23'0 0.0
2018-Jun-04 22:28N 47°39' W 122°23'0 0.0
2018-Jun-04 21:58N 47°39' W 122°23'0 0.0
2018-Jun-04 21:28N 47°39' W 122°23'0 0.0
2018-Jun-04 20:58N 47°39' W 122°23'0 0.0
2018-Jun-04 20:28N 47°39' W 122°23'0 0.0
2018-Jun-04 19:58N 47°39' W 122°23'0 0.1
2018-Jun-04 19:28N 47°39' W 122°23'0 0.1
2018-Jun-04 18:58N 47°39' W 122°23'0 0.0
2018-Jun-04 18:28N 47°39' W 122°23'0 0.0
2018-Jun-04 17:58N 47°39' W 122°23'0 0.0
2018-Jun-04 17:28N 47°39' W 122°23'0 0.0
2018-Jun-04 16:58N 47°39' W 122°23'0 0.0
2018-Jun-04 16:28N 47°39' W 122°23'0 0.0
2018-Jun-04 15:58N 47°39' W 122°23'0 0.0
2018-Jun-04 15:28N 47°39' W 122°23'0 0.1
2018-Jun-04 14:58N 47°39' W 122°23'0 0.1
2018-Jun-04 14:28N 47°39' W 122°23'0 0.0
2018-Jun-04 13:58N 47°39' W 122°23'0 0.0
2018-Jun-04 13:28N 47°39' W 122°23'0 0.0
2018-Jun-04 12:58N 47°39' W 122°23'0 0.0
2018-Jun-04 12:28N 47°39' W 122°23'0 0.0
2018-Jun-04 11:58N 47°39' W 122°23'0 0.1
2018-Jun-04 11:28N 47°39' W 122°23'0 0.1
2018-Jun-04 10:58N 47°39' W 122°23'0 0.0
2018-Jun-04 10:28N 47°39' W 122°23'0 0.0
2018-Jun-04 09:58N 47°39' W 122°23'0 0.0
2018-Jun-04 09:28N 47°39' W 122°23'0 0.0
2018-Jun-04 08:58N 47°39' W 122°23'0 0.0
2018-Jun-04 08:28N 47°39' W 122°23'0 0.1
2018-Jun-04 07:58N 47°39' W 122°23'0 0.1
2018-Jun-04 07:28N 47°39' W 122°23'0 0.0
2018-Jun-04 06:58N 47°39' W 122°23'0 0.0
2018-Jun-04 06:28N 47°39' W 122°23'0 0.0
2018-Jun-04 05:58N 47°39' W 122°23'0 0.0
2018-Jun-04 05:28N 47°39' W 122°23'0 0.1
2018-Jun-04 04:58N 47°39' W 122°23'0 0.1
2018-Jun-04 04:28N 47°39' W 122°23'0 0.0
2018-Jun-04 03:58N 47°39' W 122°23'0 0.0
2018-Jun-04 03:28N 47°39' W 122°23'0 0.0
2018-Jun-04 02:58N 47°39' W 122°23'0 0.0
2018-Jun-04 02:28N 47°39' W 122°23'0 0.0
2018-Jun-04 01:58N 47°39' W 122°23'0 0.0
2018-Jun-04 01:25N 47°39' W 122°23'0 0.0
2018-Jun-04 00:58N 47°39' W 122°23'0 0.0
2018-Jun-04 00:28N 47°39' W 122°23'0 0.0
2018-Jun-03 23:58N 47°39' W 122°23'0 0.1
2018-Jun-03 23:28N 47°39' W 122°23'0 0.1
2018-Jun-03 22:58N 47°39' W 122°23'0 0.0
2018-Jun-03 22:28N 47°39' W 122°23'0 0.0
2018-Jun-03 21:58N 47°39' W 122°23'0 0.1
2018-Jun-03 21:28N 47°39' W 122°23'0 0.1
2018-Jun-03 20:58N 47°39' W 122°23'0 0.1
2018-Jun-03 20:28N 47°39' W 122°23'0 0.0
2018-Jun-03 19:58N 47°39' W 122°23'0 0.1
2018-Jun-03 19:25N 47°39' W 122°23'0 0.0
2018-Jun-03 18:58N 47°39' W 122°23'0 0.1
2018-Jun-03 18:28N 47°39' W 122°23'0 0.1
2018-Jun-03 17:58N 47°39' W 122°23'0 0.0
2018-Jun-03 17:28N 47°39' W 122°23'0 0.0
2018-Jun-03 16:58N 47°39' W 122°23'0 0.1
2018-Jun-03 16:28N 47°39' W 122°23'0 0.1
2018-Jun-03 15:58N 47°39' W 122°23'0 0.0
2018-Jun-03 15:28N 47°39' W 122°23'0 0.0
2018-Jun-03 14:58N 47°39' W 122°23'0 0.0
2018-Jun-03 14:28N 47°39' W 122°23'0 0.0
2018-Jun-03 13:58N 47°39' W 122°23'0 0.0
2018-Jun-03 13:28N 47°39' W 122°23'0 0.0
2018-Jun-03 12:58N 47°39' W 122°23'0 0.0
2018-Jun-03 12:28N 47°39' W 122°23'0 0.0
2018-Jun-03 11:58N 47°39' W 122°23'0 0.0
2018-Jun-03 11:28N 47°39' W 122°23'0 0.0
2018-Jun-03 10:58N 47°39' W 122°23'0 0.0
2018-Jun-03 10:28N 47°39' W 122°23'0 0.0
2018-Jun-03 09:58N 47°39' W 122°23'0 0.0
2018-Jun-03 09:28N 47°39' W 122°23'0 0.1
2018-Jun-03 08:58N 47°39' W 122°23'0 0.1
2018-Jun-03 08:28N 47°39' W 122°23'0 0.0
2018-Jun-03 07:58N 47°39' W 122°23'0 0.0
2018-Jun-03 07:28N 47°39' W 122°23'0 0.0
2018-Jun-03 06:58N 47°39' W 122°23'0 0.0
2018-Jun-03 06:28N 47°39' W 122°23'0 0.0
2018-Jun-03 05:58N 47°39' W 122°23'0 0.0
2018-Jun-03 05:28N 47°39' W 122°23'0 0.0
2018-Jun-03 04:58N 47°39' W 122°23'0 0.0
2018-Jun-03 04:28N 47°39' W 122°23'0 0.0
2018-Jun-03 03:58N 47°39' W 122°23'0 0.0
2018-Jun-03 03:28N 47°39' W 122°23'0 0.0
2018-Jun-03 02:58N 47°39' W 122°23'0 0.0
2018-Jun-03 02:28N 47°39' W 122°23'0 0.0
2018-Jun-03 01:58N 47°39' W 122°23'0 0.0
2018-Jun-03 01:28N 47°39' W 122°23'0 0.0
2018-Jun-03 00:58N 47°39' W 122°23'0 0.0
2018-Jun-03 00:28N 47°39' W 122°23'0 0.0
2018-Jun-02 23:58N 47°39' W 122°23'0 0.0
2018-Jun-02 23:28N 47°39' W 122°23'0 0.0
2018-Jun-02 22:58N 47°39' W 122°23'0 0.0
2018-Jun-02 22:28N 47°39' W 122°23'0 0.0
2018-Jun-02 21:58N 47°39' W 122°23'0 0.0
2018-Jun-02 21:25N 47°39' W 122°23'0 0.0
2018-Jun-02 20:58N 47°39' W 122°23'0 0.0
2018-Jun-02 20:28N 47°39' W 122°23'0 0.1
2018-Jun-02 19:58N 47°39' W 122°23'0 0.1
2018-Jun-02 19:28N 47°39' W 122°23'0 0.1
2018-Jun-02 18:58N 47°39' W 122°23'  
Track history (hours):
 
Tides and Currents Weather Stations Pressure Air Temp Water Temp Dewpoint Dewpoint Depression Visibility Wind Speed Wind Dir Waves Ship Positions

Mystic Lady

Owner: babich fisheries, llc, gig harbor, WA. More information available from US FCC via Universal Licensing System and Coast Guard Vessel Documentation Center.

Last reported at 2018-Jun-12 18:54 UTC. Time now 2018-Jul-23 04:07 UTC.
Position N 54°20' W 130°34'.
Warning: this ship's position is 40 days out of date.

Type: Fishing. MMSI: 367356320.

Date/timePositionNaut miles runAvg speedWind from/ knotsBaromVisibWave heightAir tempDewpointWater temp
2018-Jun-12 18:54N 54°20' W 130°34'3 7.5
2018-Jun-12 18:29N 54°17' W 130°31'4 8.1
2018-Jun-12 18:00N 54°14' W 130°27'4 9.0
2018-Jun-12 17:30N 54°10' W 130°23'4 8.3
2018-Jun-12 17:00N 54°07' W 130°19'4 8.7
2018-Jun-12 16:30N 54°03' W 130°15'5 9.1
2018-Jun-12 16:00N 53°59' W 130°13'4 8.3
2018-Jun-12 15:30N 53°55' W 130°10'4 7.7
2018-Jun-12 15:00N 53°53' W 130°05'127 6.8
2018-Jun-11 20:19N 52°07' W 128°08'3 7.3
2018-Jun-11 19:54N 52°05' W 128°05'7 6.6
2018-Jun-11 18:49N 52°00' W 127°56'2 7.5
2018-Jun-11 18:30N 51°58' W 127°55'4 7.6
2018-Jun-11 17:59N 51°54' W 127°55'4 7.7
2018-Jun-11 17:30N 51°50' W 127°55'4 7.5
2018-Jun-11 17:00N 51°47' W 127°55'4 7.5
2018-Jun-11 16:30N 51°43' W 127°54'4 7.8
2018-Jun-11 16:00N 51°39' W 127°54'4 7.9
2018-Jun-11 15:30N 51°35' W 127°53'33 7.6
2018-Jun-11 11:08N 51°03' W 127°40'1 9.1
2018-Jun-11 10:59N 51°02' W 127°39'4 8.8
2018-Jun-11 10:30N 50°59' W 127°34'4 8.4
2018-Jun-11 10:00N 50°56' W 127°30'5 8.9
2018-Jun-11 09:29N 50°52' W 127°24'4 8.2
2018-Jun-11 08:59N 50°49' W 127°20'83 7.7
2018-Jun-10 22:07N 50°13' W 125°22'2 8.0
2018-Jun-10 21:50N 50°11' W 125°21'3 6.5
2018-Jun-10 21:26N 50°09' W 125°21'1 3.0
2018-Jun-10 21:00N 50°08' W 125°20'4 6.9
2018-Jun-10 20:27N 50°05' W 125°15'3 6.6
2018-Jun-10 20:00N 50°02' W 125°13'2 3.1
2018-Jun-10 19:30N 50°01' W 125°13'1 2.5
2018-Jun-10 19:00N 49°60' W 125°12'4 7.8
2018-Jun-10 18:29N 49°57' W 125°08'4 8.0
2018-Jun-10 17:58N 49°54' W 125°03'7 8.1
2018-Jun-10 17:03N 49°49' W 124°55'2 7.1
2018-Jun-10 16:42N 49°47' W 124°53'2 6.8
2018-Jun-10 16:25N 49°45' W 124°51'3 6.9
2018-Jun-10 15:59N 49°43' W 124°48'103 7.2
2018-Jun-10 01:44N 48°40' W 122°44'2 6.9
2018-Jun-10 01:29N 48°38' W 122°44'3 6.8
2018-Jun-10 00:59N 48°34' W 122°45'3 6.9
2018-Jun-10 00:30N 48°31' W 122°45'48 7.0
2018-Jun-09 17:33N 47°44' W 122°26'1 6.3
2018-Jun-09 17:26N 47°44' W 122°26'3 7.3
2018-Jun-09 17:00N 47°41' W 122°25'1 2.0
2018-Jun-09 16:28N 47°40' W 122°24'0 0.5
2018-Jun-09 15:58N 47°40' W 122°23'1 1.2
2018-Jun-09 15:30N 47°40' W 122°23'0 0.3
2018-Jun-09 14:30N 47°39' W 122°23'0 0.0
2018-Jun-09 14:00N 47°39' W 122°23'0 0.0
2018-Jun-09 13:30N 47°39' W 122°23'0 0.0
2018-Jun-09 13:00N 47°39' W 122°23'0 0.1
2018-Jun-09 12:30N 47°39' W 122°23'0 0.1
2018-Jun-09 12:00N 47°39' W 122°23'0 0.0
2018-Jun-09 11:30N 47°39' W 122°23'0 0.0
2018-Jun-09 11:00N 47°39' W 122°23'0 0.0
2018-Jun-09 10:30N 47°39' W 122°23'0 0.3
2018-Jun-09 09:59N 47°39' W 122°23'0 0.0
2018-Jun-09 09:29N 47°39' W 122°23'0 0.0
2018-Jun-09 08:59N 47°39' W 122°23'0 0.0
2018-Jun-09 08:29N 47°39' W 122°23'0 0.0
2018-Jun-09 07:59N 47°39' W 122°23'0 0.0
2018-Jun-09 07:29N 47°39' W 122°23'0 0.0
2018-Jun-09 06:59N 47°39' W 122°23'0 0.0
2018-Jun-09 06:29N 47°39' W 122°23'0 0.0
2018-Jun-09 05:59N 47°39' W 122°23'0 0.0
2018-Jun-09 05:29N 47°39' W 122°23'0 0.0
2018-Jun-09 04:59N 47°39' W 122°23'0 0.0
2018-Jun-09 04:29N 47°39' W 122°23'0 0.2
2018-Jun-09 03:58N 47°39' W 122°23'0 0.0
2018-Jun-09 03:28N 47°39' W 122°23'0 0.0
2018-Jun-09 02:58N 47°39' W 122°23'0 0.0
2018-Jun-09 02:28N 47°39' W 122°23'0 0.0
2018-Jun-09 01:58N 47°39' W 122°23'0 0.0
2018-Jun-09 01:28N 47°39' W 122°23'0 0.0
2018-Jun-09 00:58N 47°39' W 122°23'0 0.0
2018-Jun-09 00:28N 47°39' W 122°23'0 0.0
2018-Jun-08 23:58N 47°39' W 122°23'0 0.0
2018-Jun-08 23:25N 47°39' W 122°23'0 0.0
2018-Jun-08 22:58N 47°39' W 122°23'0 0.0
2018-Jun-08 22:28N 47°39' W 122°23'0 0.0
2018-Jun-08 21:58N 47°39' W 122°23'0 0.0
2018-Jun-08 21:28N 47°39' W 122°23'0 0.0
2018-Jun-08 20:55N 47°39' W 122°23'0 0.0
2018-Jun-08 20:28N 47°39' W 122°23'0 0.1
2018-Jun-08 19:58N 47°39' W 122°23'0 0.1
2018-Jun-08 19:28N 47°39' W 122°23'0 0.0
2018-Jun-08 18:58N 47°39' W 122°23'0 0.0
2018-Jun-08 18:28N 47°39' W 122°23'0 0.0
2018-Jun-08 17:58N 47°39' W 122°23'0 0.0
2018-Jun-08 17:28N 47°39' W 122°23'0 0.0
2018-Jun-08 16:58N 47°39' W 122°23'0 0.0
2018-Jun-08 16:28N 47°39' W 122°23'0 0.1
2018-Jun-08 15:52N 47°39' W 122°23'0 0.1
2018-Jun-08 15:28N 47°39' W 122°23'0 0.1
2018-Jun-08 14:58N 47°39' W 122°23'0 0.1
2018-Jun-08 14:28N 47°39' W 122°23'0 0.0
2018-Jun-08 13:58N 47°39' W 122°23'0 0.0
2018-Jun-08 13:28N 47°39' W 122°23'0 0.0
2018-Jun-08 12:58N 47°39' W 122°23'0 0.1
2018-Jun-08 12:28N 47°39' W 122°23'0 0.1
2018-Jun-08 11:58N 47°39' W 122°23'0 0.0
2018-Jun-08 11:28N 47°39' W 122°23'0 0.0
2018-Jun-08 10:58N 47°39' W 122°23'0 0.0
2018-Jun-08 10:28N 47°39' W 122°23'0 0.0
2018-Jun-08 09:58N 47°39' W 122°23'0 0.0
2018-Jun-08 09:28N 47°39' W 122°23'0 0.1
2018-Jun-08 08:58N 47°39' W 122°23'0 0.1
2018-Jun-08 08:28N 47°39' W 122°23'0 0.1
2018-Jun-08 07:55N 47°39' W 122°23'0 0.1
2018-Jun-08 07:28N 47°39' W 122°23'0 0.0
2018-Jun-08 06:58N 47°39' W 122°23'0 0.0
2018-Jun-08 06:28N 47°39' W 122°23'0 0.0
2018-Jun-08 05:58N 47°39' W 122°23'0 0.0
2018-Jun-08 05:28N 47°39' W 122°23'0 0.0
2018-Jun-08 04:55N 47°39' W 122°23'0 0.1
2018-Jun-08 04:25N 47°39' W 122°23'0 0.1
2018-Jun-08 03:58N 47°39' W 122°23'0 0.0
2018-Jun-08 03:28N 47°39' W 122°23'0 0.0
2018-Jun-08 02:58N 47°39' W 122°23'0 0.0
2018-Jun-08 02:28N 47°39' W 122°23'0 0.0
2018-Jun-08 01:58N 47°39' W 122°23'0 0.0
2018-Jun-08 01:25N 47°39' W 122°23'0 0.0
2018-Jun-08 00:58N 47°39' W 122°23'0 0.0
2018-Jun-08 00:28N 47°39' W 122°23'0 0.0
2018-Jun-07 23:58N 47°39' W 122°23'0 0.0
2018-Jun-07 23:28N 47°39' W 122°23'0 0.0
2018-Jun-07 22:58N 47°39' W 122°23'0 0.0
2018-Jun-07 22:28N 47°39' W 122°23'0 0.0
2018-Jun-07 21:58N 47°39' W 122°23'0 0.0
2018-Jun-07 21:28N 47°39' W 122°23'0 0.0
2018-Jun-07 20:58N 47°39' W 122°23'0 0.0
2018-Jun-07 20:28N 47°39' W 122°23'0 0.0
2018-Jun-07 19:58N 47°39' W 122°23'0 0.0
2018-Jun-07 19:28N 47°39' W 122°23'0 0.0
2018-Jun-07 18:58N 47°39' W 122°23'0 0.0
2018-Jun-07 18:28N 47°39' W 122°23'0 0.0
2018-Jun-07 17:58N 47°39' W 122°23'0 0.0
2018-Jun-07 17:28N 47°39' W 122°23'0 0.0
2018-Jun-07 16:58N 47°39' W 122°23'0 0.0
2018-Jun-07 16:28N 47°39' W 122°23'0 0.0
2018-Jun-07 15:58N 47°39' W 122°23'0 0.1
2018-Jun-07 15:28N 47°39' W 122°23'0 0.1
2018-Jun-07 14:58N 47°39' W 122°23'0 0.0
2018-Jun-07 14:28N 47°39' W 122°23'0 0.0
2018-Jun-07 13:58N 47°39' W 122°23'0 0.0
2018-Jun-07 13:28N 47°39' W 122°23'0 0.0
2018-Jun-07 12:58N 47°39' W 122°23'0 0.0
2018-Jun-07 12:28N 47°39' W 122°23'0 0.1
2018-Jun-07 11:58N 47°39' W 122°23'0 0.1
2018-Jun-07 11:28N 47°39' W 122°23'0 0.0
2018-Jun-07 10:58N 47°39' W 122°23'0 0.0
2018-Jun-07 10:28N 47°39' W 122°23'0 0.0
2018-Jun-07 09:58N 47°39' W 122°23'0 0.1
2018-Jun-07 09:28N 47°39' W 122°23'0 0.1
2018-Jun-07 08:58N 47°39' W 122°23'0 0.0
2018-Jun-07 08:28N 47°39' W 122°23'0 0.0
2018-Jun-07 07:58N 47°39' W 122°23'0 0.0
2018-Jun-07 07:28N 47°39' W 122°23'0 0.0
2018-Jun-07 06:58N 47°39' W 122°23'0 0.0
2018-Jun-07 06:28N 47°39' W 122°23'0 0.0
2018-Jun-07 05:58N 47°39' W 122°23'0 0.0
2018-Jun-07 05:28N 47°39' W 122°23'0 0.0
2018-Jun-07 04:58N 47°39' W 122°23'0 0.0
2018-Jun-07 04:28N 47°39' W 122°23'0 0.1
2018-Jun-07 03:58N 47°39' W 122°23'0 0.1
2018-Jun-07 03:28N 47°39' W 122°23'0 0.0
2018-Jun-07 02:58N 47°39' W 122°23'0 0.0
2018-Jun-07 02:28N 47°39' W 122°23'0 0.0
2018-Jun-07 01:58N 47°39' W 122°23'0 0.0
2018-Jun-07 01:28N 47°39' W 122°23'0 0.0
2018-Jun-07 00:58N 47°39' W 122°23'0 0.1
2018-Jun-07 00:28N 47°39' W 122°23'0 0.1
2018-Jun-06 23:58N 47°39' W 122°23'0 0.0
2018-Jun-06 23:28N 47°39' W 122°23'0 0.0
2018-Jun-06 22:58N 47°39' W 122°23'0 0.0
2018-Jun-06 22:28N 47°39' W 122°23'0 0.0
2018-Jun-06 21:58N 47°39' W 122°23'0 0.0
2018-Jun-06 21:28N 47°39' W 122°23'0 0.1
2018-Jun-06 20:58N 47°39' W 122°23'0 0.1
2018-Jun-06 20:28N 47°39' W 122°23'0 0.1
2018-Jun-06 19:58N 47°39' W 122°23'0 0.1
2018-Jun-06 19:28N 47°39' W 122°23'0 0.0
2018-Jun-06 18:58N 47°39' W 122°23'0 0.0
2018-Jun-06 18:28N 47°39' W 122°23'0 0.0
2018-Jun-06 17:58N 47°39' W 122°23'0 0.0
2018-Jun-06 17:28N 47°39' W 122°23'0 0.0
2018-Jun-06 16:58N 47°39' W 122°23'0 0.0
2018-Jun-06 16:28N 47°39' W 122°23'0 0.0
2018-Jun-06 15:58N 47°39' W 122°23'0 0.0
2018-Jun-06 15:28N 47°39' W 122°23'0 0.0
2018-Jun-06 14:58N 47°39' W 122°23'0 0.0
2018-Jun-06 14:28N 47°39' W 122°23'0 0.0
2018-Jun-06 13:58N 47°39' W 122°23'0 0.0
2018-Jun-06 13:28N 47°39' W 122°23'0 0.0
2018-Jun-06 12:58N 47°39' W 122°23'0 0.0
2018-Jun-06 12:28N 47°39' W 122°23'0 0.0
2018-Jun-06 11:58N 47°39' W 122°23'0 0.1
2018-Jun-06 11:28N 47°39' W 122°23'0 0.1
2018-Jun-06 10:58N 47°39' W 122°23'0 0.0
2018-Jun-06 10:28N 47°39' W 122°23'0 0.0
2018-Jun-06 09:58N 47°39' W 122°23'0 0.0
2018-Jun-06 09:28N 47°39' W 122°23'0 0.0
2018-Jun-06 08:58N 47°39' W 122°23'0 0.0
2018-Jun-06 08:28N 47°39' W 122°23'0 0.0
2018-Jun-06 07:58N 47°39' W 122°23'0 0.0
2018-Jun-06 07:28N 47°39' W 122°23'0 0.0
2018-Jun-06 06:58N 47°39' W 122°23'0 0.0
2018-Jun-06 06:28N 47°39' W 122°23'0 0.0
2018-Jun-06 05:58N 47°39' W 122°23'0 0.0
2018-Jun-06 05:28N 47°39' W 122°23'0 0.0
2018-Jun-06 04:58N 47°39' W 122°23'0 0.0
2018-Jun-06 04:28N 47°39' W 122°23'0 0.0
2018-Jun-06 03:58N 47°39' W 122°23'0 0.1
2018-Jun-06 03:28N 47°39' W 122°23'0 0.1
2018-Jun-06 02:58N 47°39' W 122°23'0 0.1
2018-Jun-06 02:28N 47°39' W 122°23'0 0.0
2018-Jun-06 01:58N 47°39' W 122°23'0 0.1
2018-Jun-06 01:28N 47°39' W 122°23'0 0.0
2018-Jun-06 00:58N 47°39' W 122°23'0 0.0
2018-Jun-06 00:28N 47°39' W 122°23'0 0.0
2018-Jun-05 23:58N 47°39' W 122°23'0 0.0
2018-Jun-05 23:28N 47°39' W 122°23'0 0.0
2018-Jun-05 22:58N 47°39' W 122°23'0 0.0
2018-Jun-05 22:28N 47°39' W 122°23'0 0.0
2018-Jun-05 21:58N 47°39' W 122°23'0 0.0
2018-Jun-05 21:28N 47°39' W 122°23'0 0.0
2018-Jun-05 20:58N 47°39' W 122°23'0 0.0
2018-Jun-05 20:28N 47°39' W 122°23'0 0.0
2018-Jun-05 19:58N 47°39' W 122°23'0 0.0
2018-Jun-05 19:28N 47°39' W 122°23'0 0.0
2018-Jun-05 18:58N 47°39' W 122°23'0 0.0
2018-Jun-05 18:28N 47°39' W 122°23'0 0.1
2018-Jun-05 17:58N 47°39' W 122°23'0 0.1
2018-Jun-05 17:28N 47°39' W 122°23'0 0.0
2018-Jun-05 16:58N 47°39' W 122°23'0 0.0
2018-Jun-05 16:28N 47°39' W 122°23'0 0.0
2018-Jun-05 15:58N 47°39' W 122°23'0 0.0
2018-Jun-05 15:28N 47°39' W 122°23'0 0.0
2018-Jun-05 14:58N 47°39' W 122°23'0 0.0
2018-Jun-05 14:25N 47°39' W 122°23'0 0.0
2018-Jun-05 13:58N 47°39' W 122°23'0 0.0
2018-Jun-05 13:28N 47°39' W 122°23'0 0.0
2018-Jun-05 12:58N 47°39' W 122°23'0 0.0
2018-Jun-05 12:28N 47°39' W 122°23'0 0.0
2018-Jun-05 11:55N 47°39' W 122°23'0 0.0
2018-Jun-05 11:25N 47°39' W 122°23'0 0.0
2018-Jun-05 10:58N 47°39' W 122°23'0 0.0
2018-Jun-05 10:28N 47°39' W 122°23'0 0.0
2018-Jun-05 09:58N 47°39' W 122°23'0 0.0
2018-Jun-05 09:28N 47°39' W 122°23'0 0.1
2018-Jun-05 08:58N 47°39' W 122°23'0 0.1
2018-Jun-05 08:28N 47°39' W 122°23'0 0.0
2018-Jun-05 07:58N 47°39' W 122°23'0 0.0
2018-Jun-05 07:28N 47°39' W 122°23'0 0.0
2018-Jun-05 06:58N 47°39' W 122°23'0 0.0
2018-Jun-05 06:28N 47°39' W 122°23'0 0.0
2018-Jun-05 05:58N 47°39' W 122°23'0 0.0
2018-Jun-05 05:28N 47°39' W 122°23'0 0.1
2018-Jun-05 04:58N 47°39' W 122°23'0 0.1
2018-Jun-05 04:28N 47°39' W 122°23'0 0.0
2018-Jun-05 03:58N 47°39' W 122°23'0 0.0
2018-Jun-05 03:28N 47°39' W 122°23'0 0.0
2018-Jun-05 02:58N 47°39' W 122°23'0 0.0
2018-Jun-05 02:28N 47°39' W 122°23'0 0.0
2018-Jun-05 01:58N 47°39' W 122°23'0 0.0
2018-Jun-05 01:28N 47°39' W 122°23'0 0.0
2018-Jun-05 00:58N 47°39' W 122°23'0 0.0
2018-Jun-05 00:28N 47°39' W 122°23'0 0.0
2018-Jun-04 23:55N 47°39' W 122°23'0 0.0
2018-Jun-04 23:28N 47°39' W 122°23'0 0.0
2018-Jun-04 22:58N 47°39' W 122°23'0 0.0
2018-Jun-04 22:28N 47°39' W 122°23'0 0.0
2018-Jun-04 21:58N 47°39' W 122°23'0 0.0
2018-Jun-04 21:28N 47°39' W 122°23'0 0.0
2018-Jun-04 20:58N 47°39' W 122°23'0 0.0
2018-Jun-04 20:28N 47°39' W 122°23'0 0.0
2018-Jun-04 19:58N 47°39' W 122°23'0 0.1
2018-Jun-04 19:28N 47°39' W 122°23'0 0.1
2018-Jun-04 18:58N 47°39' W 122°23'0 0.0
2018-Jun-04 18:28N 47°39' W 122°23'0 0.0
2018-Jun-04 17:58N 47°39' W 122°23'0 0.0
2018-Jun-04 17:28N 47°39' W 122°23'0 0.0
2018-Jun-04 16:58N 47°39' W 122°23'0 0.0
2018-Jun-04 16:28N 47°39' W 122°23'0 0.0
2018-Jun-04 15:58N 47°39' W 122°23'0 0.0
2018-Jun-04 15:28N 47°39' W 122°23'0 0.1
2018-Jun-04 14:58N 47°39' W 122°23'0 0.1
2018-Jun-04 14:28N 47°39' W 122°23'0 0.0
2018-Jun-04 13:58N 47°39' W 122°23'0 0.0
2018-Jun-04 13:28N 47°39' W 122°23'0 0.0
2018-Jun-04 12:58N 47°39' W 122°23'0 0.0
2018-Jun-04 12:28N 47°39' W 122°23'0 0.0
2018-Jun-04 11:58N 47°39' W 122°23'0 0.1
2018-Jun-04 11:28N 47°39' W 122°23'0 0.1
2018-Jun-04 10:58N 47°39' W 122°23'0 0.0
2018-Jun-04 10:28N 47°39' W 122°23'0 0.0
2018-Jun-04 09:58N 47°39' W 122°23'0 0.0
2018-Jun-04 09:28N 47°39' W 122°23'0 0.0
2018-Jun-04 08:58N 47°39' W 122°23'0 0.0
2018-Jun-04 08:28N 47°39' W 122°23'0 0.1
2018-Jun-04 07:58N 47°39' W 122°23'0 0.1
2018-Jun-04 07:28N 47°39' W 122°23'0 0.0
2018-Jun-04 06:58N 47°39' W 122°23'0 0.0
2018-Jun-04 06:28N 47°39' W 122°23'0 0.0
2018-Jun-04 05:58N 47°39' W 122°23'0 0.0
2018-Jun-04 05:28N 47°39' W 122°23'0 0.1
2018-Jun-04 04:58N 47°39' W 122°23'0 0.1
2018-Jun-04 04:28N 47°39' W 122°23'0 0.0
2018-Jun-04 03:58N 47°39' W 122°23'0 0.0
2018-Jun-04 03:28N 47°39' W 122°23'0 0.0
2018-Jun-04 02:58N 47°39' W 122°23'0 0.0
2018-Jun-04 02:28N 47°39' W 122°23'0 0.0
2018-Jun-04 01:58N 47°39' W 122°23'0 0.0
2018-Jun-04 01:25N 47°39' W 122°23'0 0.0
2018-Jun-04 00:58N 47°39' W 122°23'0 0.0
2018-Jun-04 00:28N 47°39' W 122°23'0 0.0
2018-Jun-03 23:58N 47°39' W 122°23'0 0.1
2018-Jun-03 23:28N 47°39' W 122°23'0 0.1
2018-Jun-03 22:58N 47°39' W 122°23'0 0.0
2018-Jun-03 22:28N 47°39' W 122°23'0 0.0
2018-Jun-03 21:58N 47°39' W 122°23'0 0.1
2018-Jun-03 21:28N 47°39' W 122°23'0 0.1
2018-Jun-03 20:58N 47°39' W 122°23'0 0.1
2018-Jun-03 20:28N 47°39' W 122°23'0 0.0
2018-Jun-03 19:58N 47°39' W 122°23'0 0.1
2018-Jun-03 19:25N 47°39' W 122°23'0 0.0
2018-Jun-03 18:58N 47°39' W 122°23'0 0.1
2018-Jun-03 18:28N 47°39' W 122°23'0 0.1
2018-Jun-03 17:58N 47°39' W 122°23'0 0.0
2018-Jun-03 17:28N 47°39' W 122°23'0 0.0
2018-Jun-03 16:58N 47°39' W 122°23'0 0.1
2018-Jun-03 16:28N 47°39' W 122°23'0 0.1
2018-Jun-03 15:58N 47°39' W 122°23'0 0.0
2018-Jun-03 15:28N 47°39' W 122°23'0 0.0
2018-Jun-03 14:58N 47°39' W 122°23'0 0.0
2018-Jun-03 14:28N 47°39' W 122°23'0 0.0
2018-Jun-03 13:58N 47°39' W 122°23'0 0.0
2018-Jun-03 13:28N 47°39' W 122°23'0 0.0
2018-Jun-03 12:58N 47°39' W 122°23'0 0.0
2018-Jun-03 12:28N 47°39' W 122°23'0 0.0
2018-Jun-03 11:58N 47°39' W 122°23'0 0.0
2018-Jun-03 11:28N 47°39' W 122°23'0 0.0
2018-Jun-03 10:58N 47°39' W 122°23'0 0.0
2018-Jun-03 10:28N 47°39' W 122°23'0 0.0
2018-Jun-03 09:58N 47°39' W 122°23'0 0.0
2018-Jun-03 09:28N 47°39' W 122°23'0 0.1
2018-Jun-03 08:58N 47°39' W 122°23'0 0.1
2018-Jun-03 08:28N 47°39' W 122°23'0 0.0
2018-Jun-03 07:58N 47°39' W 122°23'0 0.0
2018-Jun-03 07:28N 47°39' W 122°23'0 0.0
2018-Jun-03 06:58N 47°39' W 122°23'0 0.0
2018-Jun-03 06:28N 47°39' W 122°23'0 0.0
2018-Jun-03 05:58N 47°39' W 122°23'0 0.0
2018-Jun-03 05:28N 47°39' W 122°23'0 0.0
2018-Jun-03 04:58N 47°39' W 122°23'0 0.0
2018-Jun-03 04:28N 47°39' W 122°23'0 0.0
2018-Jun-03 03:58N 47°39' W 122°23'0 0.0
2018-Jun-03 03:28N 47°39' W 122°23'0 0.0
2018-Jun-03 02:58N 47°39' W 122°23'0 0.0
2018-Jun-03 02:28N 47°39' W 122°23'0 0.0
2018-Jun-03 01:58N 47°39' W 122°23'0 0.0
2018-Jun-03 01:28N 47°39' W 122°23'0 0.0
2018-Jun-03 00:58N 47°39' W 122°23'0 0.0
2018-Jun-03 00:28N 47°39' W 122°23'0 0.0
2018-Jun-02 23:58N 47°39' W 122°23'0 0.0
2018-Jun-02 23:28N 47°39' W 122°23'0 0.0
2018-Jun-02 22:58N 47°39' W 122°23'0 0.0
2018-Jun-02 22:28N 47°39' W 122°23'0 0.0
2018-Jun-02 21:58N 47°39' W 122°23'0 0.0
2018-Jun-02 21:25N 47°39' W 122°23'0 0.0
2018-Jun-02 20:58N 47°39' W 122°23'0 0.0
2018-Jun-02 20:28N 47°39' W 122°23'0 0.1
2018-Jun-02 19:58N 47°39' W 122°23'0 0.1
2018-Jun-02 19:28N 47°39' W 122°23'0 0.1
2018-Jun-02 18:58N 47°39' W 122°23'  

Dump ship's entire track history